Private Wetterstation Steinlsa - Software WSWIN v. Werner Krenn
Wetterdaten: aktuell Dienstag, 15.10.2019 18:00
Datum Zeit Temp. + 2 m Temp. + 5cm Lft. + 2 m Luftdruck Regen Wind Richtung Richtung Sonnenschein UV Tp Wc Windben
15.10.2019 18:00 17,5 C 14,4 C 67 % 1006,5 hPa 0,0 l/m 0,3 km/h (0 Bft) W 270 10 min 0,0 UV-I 11,3 C 17,5 C 0,0 km/h (0 Bft)
15.10.2019 17:00 18,6 C 15,5 C 64 % 1006,7 hPa 0,0 l/m 5,8 km/h (2 Bft) SW 225 60 min 1,5 UV-I 11,7 C 18,6 C 9,7 km/h (2 Bft)
15.10.2019 16:00 19,1 C 16,1 C 63 % 1007,3 hPa 0,0 l/m 3,2 km/h (1 Bft) W 270 60 min 3,5 UV-I 11,9 C 19,1 C 5,8 km/h (2 Bft)
15.10.2019 15:00 19,4 C 16,2 C 63 % 1008,1 hPa 0,0 l/m 8,7 km/h (2 Bft) N-NO 22 60 min 6,3 UV-I 12,2 C 19,4 C 23,2 km/h (4 Bft)
15.10.2019 14:00 19,7 C 16,2 C 63 % 1011,3 hPa 0,0 l/m 8,7 km/h (2 Bft) S-SO 157 60 min 8,3 UV-I 12,5 C 19,7 C 6,1 km/h (2 Bft)
15.10.2019 13:00 20,0 C 16,4 C 64 % 1012,1 hPa 0,0 l/m 11,3 km/h (2 Bft) SW 225 60 min 8,5 UV-I 13,0 C 20,0 C 15,1 km/h (3 Bft)
15.10.2019 12:00 19,5 C 16,3 C 67 % 1012,5 hPa 0,0 l/m 6,1 km/h (2 Bft) S-SO 157 60 min 7,3 UV-I 13,2 C 19,5 C 29,6 km/h (5 Bft)
15.10.2019 11:00 19,0 C 15,8 C 70 % 1010,0 hPa 0,0 l/m 11,3 km/h (2 Bft) S-SO 157 60 min 5,3 UV-I 13,4 C 19,0 C 12,2 km/h (2 Bft)
15.10.2019 10:00 16,3 C 14,4 C 76 % 1009,6 hPa 0,0 l/m 11,0 km/h (2 Bft) SW 225 60 min 3,9 UV-I 12,1 C 16,3 C 37,7 km/h (5 Bft)
15.10.2019 09:00 15,3 C 13,7 C 78 % 1009,5 hPa 0,0 l/m 7,2 km/h (2 Bft) NW 315 20 min 1,5 UV-I 11,5 C 15,3 C 5,1 km/h (1 Bft)
15.10.2019 08:00 14,8 C 13,2 C 78 % 1009,5 hPa 0,0 l/m 6,7 km/h (2 Bft) SO 135 0 min 0,0 UV-I 11,0 C 14,8 C 11,6 km/h (2 Bft)
15.10.2019 07:00 14,8 C 13,2 C 79 % 1009,9 hPa 0,0 l/m 7,5 km/h (2 Bft) S-SO 157 0 min 0,0 UV-I 11,2 C 14,8 C 12,6 km/h (3 Bft)
15.10.2019 06:02 14,2 C 12,8 C 79 % 1010,5 hPa 0,0 l/m 3,2 km/h (1 Bft) O 90 0 min 0,0 UV-I 10,6 C 14,2 C 0,0 km/h (0 Bft)
15.10.2019 05:02 13,4 C 12,4 C 79 % 1010,7 hPa 0,0 l/m 6,4 km/h (2 Bft) O-SO 112 0 min 0,0 UV-I 9,8 C 13,4 C 10,3 km/h (2 Bft)
15.10.2019 04:02 13,3 C 12,4 C 77 % 1010,8 hPa 0,0 l/m 1,7 km/h (1 Bft) O-SO 112 0 min 0,0 UV-I 9,4 C 13,3 C 5,5 km/h (2 Bft)
15.10.2019 03:02 13,9 C 12,7 C 76 % 1011,4 hPa 0,0 l/m 0,3 km/h (0 Bft) N 360 0 min 0,0 UV-I 9,7 C 13,9 C 0,0 km/h (0 Bft)
15.10.2019 02:02 14,7 C 13,0 C 74 % 1012,2 hPa 0,0 l/m 0,6 km/h (0 Bft) O-NO 67 0 min 0,0 UV-I 10,1 C 14,7 C 5,5 km/h (2 Bft)
15.10.2019 01:02 15,8 C 13,7 C 72 % 1012,0 hPa 0,0 l/m 2,0 km/h (1 Bft) W-NW 292 0 min 0,0 UV-I 10,8 C 15,8 C 8,7 km/h (2 Bft)
15.10.2019 00:02 17,1 C 14,8 C 71 % 1012,8 hPa 0,0 l/m 5,8 km/h (2 Bft) O 90 0 min 0,0 UV-I 11,8 C 17,1 C 13,8 km/h (3 Bft)
_ Min-Zeit 04:12 04:12 13:10 18:00 - 00:42 - - - 00:02 04:12 04:12 00:32
Minimum _ 13,2 C 12,3 C 63 % 1006,5 hPa - 0,0 km/h (0 Bft) - - - 0,0 UV-I 9,3 C 13,2 C 0,0 km/h (0 Bft)
_ Max-Zeit 12:50 12:40 05:32 00:02 00:02 13:10 - - 08:50 13:00 11:10 12:50 11:20
Maximum _ 20,0 C 16,5 C 81 % 1012,8 hPa 0,0 l/m 13,3 km/h
O-SO (3 Bft)
- - 10 min 8,5 UV-I 13,7 C 20,0 C 41,8 km/h
O-SO (6 Bft)
Durchschnitt _ 16,6 C 14,4 C 72 % 1010,1 hPa #0,0 l/m 5,6 km/h (2 Bft) S-SO - #8:30 h 4,8 UV-I 11,4 C 16,6 C 8,6 km/h (2 Bft)